x

South Hatteras - 225 South Of Cape Hatteras (41002) Wave Buoy

10:50pm - Thu 31st Jul 2014 All times are EDT. -4 hours from GMT.

  • Sig Wave height 3.6ft
  • Swell Direction
  • Peak Period 6s
  • Average Period 5s
  • Wind
    9mph, 11mph gusts
  • Sea Temp 81°f
  • 空気 Temp 81°f
  • Sea Pressure 1020.1mb
  • South Hatteras - 225 South Of Cape Hatteras
  • South Hatteras - 225 South Of Cape Hatteras

More Historic Weather Station data

Upgrade to MSW Pro to gain access to the past 30 days of data for over 8000 Wavebouys and Weather Stations around the globe.

Join Pro

Comparision Forecast

View Surf forecast
   
Thu 07/31 10:50pm 3.5ft 6s 5s 9 11 mph 1020.1mb 81f 81f
9:50pm 3.5ft 7s 5s 7 9 mph 1020mb 81f 81f
8:50pm 4ft 7s 6s 4 7 mph 1019.6mb 81f 80f
7:50pm 3.5ft 6s 6s 4 7 mph 1019.2mb 81f 80f
6:50pm 3.5ft 6s 6s 4
mph
1018.7mb 81f 80f
5:50pm 3.5ft 6s 6s 7 9 mph 1018.5mb 81f 80f
4:50pm 3.5ft 6s 6s 4 7 mph 1018.6mb 81f 80f
3:50pm 3.5ft 7s 5s 9 11 mph 1018.7mb 81f 79f
2:50pm 3.5ft 6s 5s 9 11 mph 1018.9mb 81f 79f
1:50pm 4ft 6s 5s 11 16 mph 1018.9mb 81f 80f
12:50pm 4.5ft 6s 5s 9 11 mph 1018.9mb 81f 79f
11:50am 3.5ft 6s 5s 13 16 mph 1018.9mb 81f 77f
10:50am 3.5ft 6s 5s 13 16 mph 1019.1mb 80f 76f
9:50am 3.5ft 6s 5s 13 16 mph 1018.3mb 80f 78f
8:50am 3.5ft 6s 6s 13
mph
1018.4mb 80f 80f
7:50am 3.5ft 6s 6s 9 11 mph 1018mb 80f 79f
6:50am 3.5ft 5s 5s 4 7 mph 1017.6mb 80f 80f
5:50am 3.5ft 7s 5s 4 7 mph 1016.9mb 80f 80f
4:50am 3.5ft 6s 5s 4 7 mph 1016.8mb 80f 79f
3:50am 3.5ft 6s 5s 7
mph
1016.7mb 80f 79f
2:50am 4ft 6s 5s 4
mph
1016.8mb 80f 80f
1:50am 3.5ft 6s 5s 4
mph
1016.9mb 80f 79f
12:50am 4ft 6s 5s 4
mph
1017mb 80f 79f
Wed 07/30 11:50pm 4ft 6s 5s  -  2 mph 1017mb 80f 79f
9:50pm 4.5ft 6s 6s 2
mph
1016.6mb 81f 79f
8:50pm 4.5ft 6s 6s 9 13 mph 1016.4mb 81f 75f
7:50pm 4.5ft 6s 6s 7
mph
1015.8mb 81f 81f
6:50pm 4.5ft 6s 6s 4
mph
1015.4mb 81f 82f
5:50pm 4.5ft 6s 6s 7 9 mph 1015.2mb 81f 82f
4:50pm 4.5ft 6s 5s 13 16 mph 1014.9mb 81f 81f
3:50pm 4.5ft 7s 5s 16 20 mph 1014.8mb 81f 81f
2:50pm 4.5ft 7s 5s 11 16 mph 1015.1mb 81f 80f
1:50pm 4.5ft 7s 5s 16 20 mph 1015.4mb 81f 79f
12:50pm 4.5ft 7s 5s 16 18 mph 1015.6mb 81f 78f
11:50am 4.5ft 7s 5s 13 16 mph 1015.7mb 80f 78f
10:50am 4.5ft 7s 6s 2 4 mph 1015.8mb 80f 79f
9:50am 4.5ft 7s 5s 2 4 mph 1015.5mb 80f 77f
8:50am 5ft 7s 5s 7 11 mph 1014.7mb 80f 76f
7:50am 5ft 7s 6s 9 11 mph 1014.7mb 80f 80f
6:50am 5ft 7s 5s 9 11 mph 1014mb 80f 79f
5:50am 5.5ft 7s 5s 11 13 mph 1013.9mb 80f 78f
4:50am 6ft 7s 5s 16 20 mph 1013.6mb 80f 76f
3:50am 6ft 7s 5s 18 20 mph 1013.1mb 80f 81f
2:50am 5.5ft 6s 5s 18 22 mph 1013.3mb 80f 81f
1:50am 6ft 7s 6s 20 22 mph 1013.6mb 80f 81f
12:50am 6ft 7s 6s 20 25 mph 1014mb 81f 81f
Tue 07/29 11:50pm 6ft 7s 6s 16 20 mph 1014.6mb 81f 81f
10:50pm 5.5ft 7s 5s 16 20 mph 1014.3mb 81f 82f
9:50pm 6ft 7s 6s 20 22 mph 1014.3mb 81f 81f
8:50pm 6ft 7s 5s 20 25 mph 1013.9mb 81f 81f
7:50pm 6ft 8s 5s 22 27 mph 1013.2mb 81f 81f
6:50pm 6ft 7s 5s 22 27 mph 1012.6mb 81f 81f
5:50pm 6ft 8s 5s 20 27 mph 1012.5mb 81f 81f
4:50pm 6ft 7s 5s 27 34 mph 1013mb 81f 80f
3:50pm 6ft 8s 5s 22 27 mph 1013.4mb 81f 80f
2:50pm 5.5ft 8s 5s 22 27 mph 1013.5mb 81f 80f
1:50pm 6ft 8s 6s 20 22 mph 1013.7mb 81f 79f
12:50pm 5ft 8s 6s 20 25 mph 1014.2mb 81f 78f
11:50am 5ft 8s 6s 22 27 mph 1013.9mb 81f 78f
10:50am 5ft 7s 6s 25 27 mph 1013.4mb 80f 76f
9:50am 6ft 7s 6s 9 13 mph 1014.1mb 80f 74f
8:50am 6ft 7s 6s 4 7 mph 1015.4mb 81f 75f
7:50am 6ft 7s 6s 9 11 mph 1015mb 81f 75f
6:50am 6ft 7s 5s 16 20 mph 1014.4mb 81f 74f
5:50am 6ft 7s 5s 16 22 mph 1013.6mb 81f 82f
4:50am 6ft 7s 5s 20 25 mph 1012.8mb 81f 82f
3:50am 6.5ft 7s 5s 20 25 mph 1012.6mb 81f 82f
2:50am 6ft 7s 5s 20 27 mph 1012.2mb 81f 82f
1:50am 6ft 7s 5s 20 25 mph 1013mb 81f 82f
12:50am 6.5ft 7s 5s 22 27 mph 1013.3mb 81f 82f
Mon 07/28 11:50pm 6ft 7s 5s 22 25 mph 1013.1mb 82f 82f
10:50pm 6ft 7s 5s 22 27 mph 1013.2mb 81f 82f
9:50pm 5.5ft 8s 5s 20 25 mph 1013.7mb 81f 82f
8:50pm 6ft 8s 5s 20 25 mph 1013.7mb 81f 82f
7:50pm 6ft 8s 5s 20 25 mph 1013.3mb 82f 82f
6:50pm 5.5ft 8s 5s 20 25 mph 1013.2mb 82f 82f
5:50pm 5.5ft 7s 5s 20 25 mph 1013.3mb 82f 83f
4:50pm 6ft 7s 5s 18 22 mph 1013.3mb 81f 82f
3:50pm 6ft 7s 5s 18 22 mph 1013.4mb 81f 82f
2:50pm 6ft 7s 5s 18 20 mph 1013.9mb 81f 82f
1:50pm 5.5ft 7s 5s 20 22 mph 1014.3mb 81f 82f
12:50pm 6ft 7s 5s 18 20 mph 1014.5mb 81f 82f
11:50am 6ft 7s 5s 18 22 mph 1014.7mb 81f 82f
10:50am 5.5ft 7s 5s 20 22 mph 1015mb 81f 82f
9:50am 6ft 6s 5s 18 22 mph 1015.1mb 81f 82f
8:50am 5.5ft 6s 5s 20 25 mph 1014.8mb 81f 82f
7:50am 6ft 7s 5s 20 25 mph 1015mb 80f 82f
6:50am 6ft 6s 5s 20 25 mph 1014.9mb 80f 81f
5:50am 6ft 7s 5s 18 22 mph 1014.8mb 80f 81f
4:50am 6ft 6s 5s 18 22 mph 1014.4mb 80f 81f